Time;durP1;ratioP1;P1;durP2;ratioP2;P2;SDS_P1;SDS_P2;PMS_P1;PMS_P2;Temp;Humidity;BMP_temperature;BMP_pressure;BME280_temperature;BME280_humidity;BME280_pressure;Samples;Min_cycle;Max_cycle;Signal;HPM_P1;HPM_P2
2023/07/11 00:02:14;;;;;;;12.45;9.88;;;;;;;;;;5047171;28;20419;-77
2023/07/11 00:04:39;;;;;;;13.75;9.27;;;;;;;;;;5045779;28;20028;-76
2023/07/11 00:07:05;;;;;;;11.68;9.70;;;;;;;;;;5047743;28;20456;-77
2023/07/11 00:09:30;;;;;;;12.40;9.90;;;;;;;;;;5051579;28;20063;-77
2023/07/11 00:11:56;;;;;;;11.07;9.15;;;;;;;;;;5047615;28;20028;-76
2023/07/11 00:14:21;;;;;;;11.27;9.38;;;;;;;;;;5047430;28;20352;-77
2023/07/11 00:16:46;;;;;;;9.77;8.93;;;;;;;;;;5047293;28;20653;-78
2023/07/11 00:19:12;;;;;;;11.30;8.68;;;;;;;;;;5047535;28;20058;-77
2023/07/11 00:21:38;;;;;;;10.63;9.52;;;;;;;;;;5046276;28;20037;-78
2023/07/11 00:24:05;;;;;;;10.20;9.18;;;;;;;;;;5046571;28;20036;-76
2023/07/11 00:26:31;;;;;;;11.00;9.88;;;;;;;;;;5049441;28;20098;-76
2023/07/11 00:28:59;;;;;;;10.43;9.38;;;;;;;;;;5048513;28;20462;-75
2023/07/11 00:31:24;;;;;;;13.50;10.32;;;;;;;;;;5046369;28;20028;-75
2023/07/11 00:33:50;;;;;;;13.25;10.93;;;;;;;;;;5045488;28;20050;-77
2023/07/11 00:36:15;;;;;;;10.95;9.85;;;;;;;;;;5051647;28;20036;-75
2023/07/11 00:38:40;;;;;;;10.18;9.07;;;;;;;;;;5045324;28;20147;-76
2023/07/11 00:41:07;;;;;;;9.77;8.82;;;;;;;;;;5055462;28;20067;-77
2023/07/11 00:43:32;;;;;;;10.38;9.23;;;;;;;;;;5049433;28;20537;-78
2023/07/11 00:46:02;;;;;;;9.93;9.02;;;;;;;;;;5054656;28;20039;-77
2023/07/11 00:48:27;;;;;;;9.98;9.07;;;;;;;;;;5061125;28;20086;-77
2023/07/11 00:50:55;;;;;;;10.95;9.00;;;;;;;;;;5050396;28;21071;-77
2023/07/11 00:53:20;;;;;;;12.25;10.48;;;;;;;;;;5056774;28;20251;-78
2023/07/11 00:55:46;;;;;;;16.20;12.40;;;;;;;;;;5051619;28;20124;-78
2023/07/11 00:58:12;;;;;;;13.65;12.10;;;;;;;;;;5054331;28;20106;-79
2023/07/11 01:00:37;;;;;;;13.95;10.85;;;;;;;;;;5053401;28;20027;-78
2023/07/11 01:03:02;;;;;;;11.93;10.30;;;;;;;;;;5059328;28;20028;-79
2023/07/11 01:05:28;;;;;;;10.27;9.25;;;;;;;;;;5047334;28;20024;-78
2023/07/11 01:07:53;;;;;;;12.40;9.85;;;;;;;;;;5060193;28;20067;-77
2023/07/11 01:10:19;;;;;;;10.73;9.82;;;;;;;;;;5061365;28;20042;-78
2023/07/11 01:12:45;;;;;;;10.45;9.55;;;;;;;;;;5053417;28;20329;-76
2023/07/11 01:15:11;;;;;;;10.30;9.40;;;;;;;;;;5047403;28;20086;-77
2023/07/11 01:17:37;;;;;;;16.38;10.27;;;;;;;;;;5047493;28;20032;-77
2023/07/11 01:20:04;;;;;;;11.10;10.00;;;;;;;;;;5046790;28;20047;-78
2023/07/11 01:22:30;;;;;;;10.13;9.25;;;;;;;;;;5058953;28;20119;-77
2023/07/11 01:25:03;;;;;;;12.35;9.82;;;;;;;;;;5060617;28;20013;-77
2023/07/11 01:27:29;;;;;;;11.30;10.25;;;;;;;;;;5061148;28;20047;-77
2023/07/11 01:29:54;;;;;;;14.05;9.35;;;;;;;;;;5060119;28;20412;-77
2023/07/11 01:32:19;;;;;;;10.88;9.75;;;;;;;;;;5060615;28;20032;-77
2023/07/11 01:34:45;;;;;;;11.13;9.70;;;;;;;;;;5048914;28;20122;-77
2023/07/11 01:37:10;;;;;;;10.38;9.00;;;;;;;;;;5057387;28;20044;-76
2023/07/11 01:39:36;;;;;;;9.82;8.82;;;;;;;;;;5060253;28;20024;-75
2023/07/11 01:42:01;;;;;;;10.40;9.40;;;;;;;;;;5056149;28;20029;-74
2023/07/11 01:44:28;;;;;;;11.35;9.18;;;;;;;;;;5057536;28;20107;-72
2023/07/11 01:46:54;;;;;;;10.75;9.75;;;;;;;;;;5054350;28;20383;-73
2023/07/11 01:49:19;;;;;;;10.35;9.45;;;;;;;;;;5052463;28;20028;-74
2023/07/11 01:51:45;;;;;;;10.50;9.43;;;;;;;;;;5049631;28;20047;-74
2023/07/11 01:54:10;;;;;;;10.65;9.55;;;;;;;;;;5054550;28;20031;-74
2023/07/11 01:56:36;;;;;;;12.48;10.02;;;;;;;;;;5048218;28;20497;-75
2023/07/11 01:59:01;;;;;;;11.27;10.20;;;;;;;;;;5049740;28;20036;-75
2023/07/11 02:01:26;;;;;;;10.85;9.75;;;;;;;;;;5050546;28;20021;-74
2023/07/11 02:03:52;;;;;;;10.45;9.45;;;;;;;;;;5052632;28;20017;-72
2023/07/11 02:06:17;;;;;;;10.45;9.45;;;;;;;;;;5050004;28;20060;-73
2023/07/11 02:08:43;;;;;;;10.30;9.40;;;;;;;;;;5055733;28;20410;-72
2023/07/11 02:11:08;;;;;;;11.13;9.90;;;;;;;;;;5051113;28;20082;-72
2023/07/11 02:13:34;;;;;;;12.02;10.07;;;;;;;;;;5045391;28;20021;-74
2023/07/11 02:16:00;;;;;;;11.95;9.90;;;;;;;;;;5046522;28;20032;-73
2023/07/11 02:18:25;;;;;;;9.98;9.18;;;;;;;;;;5045606;28;20029;-71
2023/07/11 02:20:54;;;;;;;10.75;9.65;;;;;;;;;;5049045;28;20036;-75
2023/07/11 02:23:20;;;;;;;10.85;9.80;;;;;;;;;;5048285;28;20112;-73
2023/07/11 02:25:45;;;;;;;10.88;9.88;;;;;;;;;;5059953;28;20111;-72
2023/07/11 02:28:10;;;;;;;10.10;9.20;;;;;;;;;;5058455;28;20059;-71
2023/07/11 02:30:36;;;;;;;10.35;9.35;;;;;;;;;;5076856;28;20064;-73
2023/07/11 02:33:01;;;;;;;9.50;8.57;;;;;;;;;;5061993;28;20025;-75
2023/07/11 02:35:26;;;;;;;10.00;9.00;;;;;;;;;;5049862;28;20051;-75
2023/07/11 02:37:52;;;;;;;11.90;9.35;;;;;;;;;;5062705;28;20153;-73
2023/07/11 02:40:18;;;;;;;10.52;9.18;;;;;;;;;;5061909;28;20111;-74
2023/07/11 02:42:43;;;;;;;13.35;9.48;;;;;;;;;;5061411;28;20035;-72
2023/07/11 02:45:09;;;;;;;12.27;9.30;;;;;;;;;;5060951;28;20028;-72
2023/07/11 02:47:34;;;;;;;10.55;9.65;;;;;;;;;;5061082;28;20042;-72
2023/07/11 02:50:00;;;;;;;10.75;9.73;;;;;;;;;;5052329;28;20033;-73
2023/07/11 02:52:25;;;;;;;13.10;9.65;;;;;;;;;;5055949;28;20111;-74
2023/07/11 02:54:50;;;;;;;10.40;9.50;;;;;;;;;;5051837;28;20054;-72
2023/07/11 02:57:16;;;;;;;11.25;10.15;;;;;;;;;;5050497;28;20386;-73
2023/07/11 02:59:44;;;;;;;11.57;9.55;;;;;;;;;;5060280;28;20036;-76
2023/07/11 03:02:09;;;;;;;11.15;10.15;;;;;;;;;;5060124;28;20074;-74
2023/07/11 03:04:35;;;;;;;10.88;9.82;;;;;;;;;;5052745;28;20025;-73
2023/07/11 03:07:00;;;;;;;10.80;9.85;;;;;;;;;;5050548;28;20360;-73
2023/07/11 03:09:26;;;;;;;10.82;9.77;;;;;;;;;;5052408;28;20042;-75
2023/07/11 03:11:52;;;;;;;11.48;10.27;;;;;;;;;;5050142;28;20120;-73
2023/07/11 03:14:17;;;;;;;10.65;9.05;;;;;;;;;;5055596;28;20115;-74
2023/07/11 03:16:43;;;;;;;10.65;9.60;;;;;;;;;;5052303;28;20032;-73
2023/07/11 03:19:09;;;;;;;10.70;9.70;;;;;;;;;;5055770;28;20039;-73
2023/07/11 03:21:34;;;;;;;12.77;11.57;;;;;;;;;;5051703;28;20098;-74
2023/07/11 03:23:59;;;;;;;12.23;11.10;;;;;;;;;;5058995;28;20107;-75
2023/07/11 03:26:25;;;;;;;12.35;10.88;;;;;;;;;;5050095;28;20047;-73
2023/07/11 03:28:50;;;;;;;12.73;11.50;;;;;;;;;;5054078;28;20068;-75
2023/07/11 03:31:16;;;;;;;16.85;12.25;;;;;;;;;;5053949;28;20032;-72
2023/07/11 03:33:42;;;;;;;11.70;10.68;;;;;;;;;;5057817;28;20036;-72
2023/07/11 03:36:07;;;;;;;14.90;12.88;;;;;;;;;;5049422;28;20578;-72
2023/07/11 03:38:32;;;;;;;12.48;11.18;;;;;;;;;;5059808;28;20036;-72
2023/07/11 03:40:58;;;;;;;11.82;10.63;;;;;;;;;;5059486;28;20051;-74
2023/07/11 03:43:23;;;;;;;12.45;11.15;;;;;;;;;;5056442;28;20024;-72
2023/07/11 03:45:49;;;;;;;11.38;8.88;;;;;;;;;;5055464;28;20166;-72
2023/07/11 03:48:15;;;;;;;10.63;9.68;;;;;;;;;;5049721;28;20043;-73
2023/07/11 03:50:40;;;;;;;13.85;10.63;;;;;;;;;;5046666;28;20910;-71
2023/07/11 03:53:06;;;;;;;12.90;11.60;;;;;;;;;;5055610;28;20028;-73
2023/07/11 03:55:31;;;;;;;21.88;16.15;;;;;;;;;;5057025;28;20478;-73
2023/07/11 03:57:56;;;;;;;15.73;14.13;;;;;;;;;;5054754;28;20025;-72
2023/07/11 04:00:22;;;;;;;17.27;14.90;;;;;;;;;;5057812;28;20133;-73
2023/07/11 04:02:47;;;;;;;21.52;18.23;;;;;;;;;;5051077;28;20407;-73
2023/07/11 04:05:13;;;;;;;24.92;21.23;;;;;;;;;;5045757;28;20344;-72
2023/07/11 04:07:38;;;;;;;28.20;22.58;;;;;;;;;;5045350;28;20048;-76
2023/07/11 04:10:05;;;;;;;34.13;26.02;;;;;;;;;;5045754;28;21078;-72
2023/07/11 04:12:30;;;;;;;30.13;23.98;;;;;;;;;;5045186;28;20024;-73
2023/07/11 04:14:56;;;;;;;30.98;18.85;;;;;;;;;;5046103;28;20036;-73
2023/07/11 04:17:21;;;;;;;12.80;11.50;;;;;;;;;;5045534;28;20036;-74
2023/07/11 04:19:47;;;;;;;13.93;11.82;;;;;;;;;;5045582;28;20367;-75
2023/07/11 04:22:12;;;;;;;48.65;35.63;;;;;;;;;;5045044;28;20078;-73
2023/07/11 04:24:37;;;;;;;37.63;29.88;;;;;;;;;;5047214;28;20051;-74
2023/07/11 04:27:03;;;;;;;37.72;29.58;;;;;;;;;;5054737;28;20048;-73
2023/07/11 04:29:28;;;;;;;33.00;27.33;;;;;;;;;;5047827;28;20459;-76
2023/07/11 04:31:53;;;;;;;37.65;27.92;;;;;;;;;;5057570;28;20024;-72
2023/07/11 04:34:19;;;;;;;22.73;20.15;;;;;;;;;;5051868;28;20039;-73
2023/07/11 04:36:44;;;;;;;30.65;22.40;;;;;;;;;;5047730;28;20020;-72
2023/07/11 04:39:10;;;;;;;27.63;22.02;;;;;;;;;;5053396;28;20308;-73
2023/07/11 04:41:35;;;;;;;26.85;21.67;;;;;;;;;;5053169;28;20039;-72
2023/07/11 04:44:00;;;;;;;20.67;18.48;;;;;;;;;;5046091;28;20064;-73
2023/07/11 04:46:26;;;;;;;15.32;12.77;;;;;;;;;;5048814;28;20024;-73
2023/07/11 04:48:51;;;;;;;11.70;10.50;;;;;;;;;;5045501;28;20379;-75
2023/07/11 04:51:17;;;;;;;9.68;8.80;;;;;;;;;;5047310;28;20031;-73
2023/07/11 04:53:43;;;;;;;16.60;12.85;;;;;;;;;;5050705;28;20017;-74
2023/07/11 04:56:09;;;;;;;12.10;10.90;;;;;;;;;;5049097;28;20452;-73
2023/07/11 04:58:35;;;;;;;17.33;13.23;;;;;;;;;;5046073;28;20367;-72
2023/07/11 05:01:09;;;;;;;14.57;12.82;;;;;;;;;;5047390;28;20046;-71
2023/07/11 05:03:34;;;;;;;14.68;13.18;;;;;;;;;;5047219;28;20024;-73
2023/07/11 05:06:01;;;;;;;13.52;12.13;;;;;;;;;;5054752;28;20070;-72
2023/07/11 05:08:26;;;;;;;11.55;10.32;;;;;;;;;;5057765;28;20064;-72
2023/07/11 05:11:02;;;;;;;10.15;9.15;;;;;;;;;;5056527;28;20037;-72
2023/07/11 05:13:29;;;;;;;9.23;8.18;;;;;;;;;;5057186;28;20130;-71
2023/07/11 05:16:02;;;;;;;8.40;7.57;;;;;;;;;;5058109;28;20031;-72
2023/07/11 05:18:27;;;;;;;12.35;8.50;;;;;;;;;;5059380;28;20032;-72
2023/07/11 05:20:54;;;;;;;8.40;7.57;;;;;;;;;;5059706;28;21103;-75
2023/07/11 05:23:20;;;;;;;8.30;7.50;;;;;;;;;;5059272;28;20099;-74
2023/07/11 05:25:46;;;;;;;8.38;6.88;;;;;;;;;;5057617;28;20381;-74
2023/07/11 05:28:13;;;;;;;7.97;7.10;;;;;;;;;;5054109;28;20030;-75
2023/07/11 05:30:38;;;;;;;7.00;6.40;;;;;;;;;;5057210;28;20078;-74
2023/07/11 05:33:04;;;;;;;8.20;7.15;;;;;;;;;;5054912;28;20376;-75
2023/07/11 05:35:37;;;;;;;8.15;6.90;;;;;;;;;;5057133;28;20021;-74
2023/07/11 05:38:03;;;;;;;7.50;6.90;;;;;;;;;;5037691;28;20436;-75
2023/07/11 05:40:30;;;;;;;7.57;6.80;;;;;;;;;;5039188;28;20037;-75
2023/07/11 05:42:55;;;;;;;9.75;7.32;;;;;;;;;;5040472;28;20055;-75
2023/07/11 05:45:20;;;;;;;7.75;7.15;;;;;;;;;;5038860;28;20036;-75
2023/07/11 05:47:46;;;;;;;7.78;7.03;;;;;;;;;;5039478;28;20017;-76
2023/07/11 05:50:11;;;;;;;7.18;6.63;;;;;;;;;;5037084;28;20049;-75
2023/07/11 05:52:36;;;;;;;7.32;6.63;;;;;;;;;;5038457;28;20047;-76
2023/07/11 05:55:02;;;;;;;8.15;6.78;;;;;;;;;;5042318;28;20432;-76
2023/07/11 05:57:27;;;;;;;8.00;6.97;;;;;;;;;;5041240;28;20063;-77
2023/07/11 05:59:52;;;;;;;7.50;6.80;;;;;;;;;;5041672;28;20051;-76
2023/07/11 06:02:19;;;;;;;8.02;6.95;;;;;;;;;;5048840;28;20045;-75
2023/07/11 06:04:44;;;;;;;7.45;6.75;;;;;;;;;;5054777;28;20028;-76
2023/07/11 06:07:10;;;;;;;7.38;6.68;;;;;;;;;;5057835;28;20049;-76
2023/07/11 06:09:35;;;;;;;9.13;6.88;;;;;;;;;;5059919;28;20027;-75
2023/07/11 06:12:00;;;;;;;10.65;6.80;;;;;;;;;;5060309;28;20091;-74
2023/07/11 06:14:27;;;;;;;7.20;6.50;;;;;;;;;;5059472;28;20024;-75
2023/07/11 06:16:52;;;;;;;7.35;6.75;;;;;;;;;;5059237;28;20029;-76
2023/07/11 06:19:17;;;;;;;7.07;6.47;;;;;;;;;;5060708;28;20396;-75
2023/07/11 06:21:44;;;;;;;6.88;6.22;;;;;;;;;;5061167;28;20412;-76
2023/07/11 06:24:10;;;;;;;7.72;6.80;;;;;;;;;;5059352;28;20497;-74
2023/07/11 06:26:35;;;;;;;7.10;6.50;;;;;;;;;;5060470;28;20025;-76
2023/07/11 06:29:00;;;;;;;7.97;7.18;;;;;;;;;;5059789;28;20028;-74
2023/07/11 06:31:26;;;;;;;7.35;6.65;;;;;;;;;;5062957;28;20025;-75
2023/07/11 06:33:51;;;;;;;7.47;6.78;;;;;;;;;;5060096;28;20016;-76
2023/07/11 06:36:16;;;;;;;10.38;7.05;;;;;;;;;;5057446;28;20032;-77
2023/07/11 06:38:42;;;;;;;7.30;6.57;;;;;;;;;;5059339;28;20032;-74
2023/07/11 06:41:07;;;;;;;6.80;6.20;;;;;;;;;;5060603;28;20025;-76
2023/07/11 06:43:33;;;;;;;6.55;6.00;;;;;;;;;;5061098;28;20032;-76
2023/07/11 06:45:59;;;;;;;7.38;6.55;;;;;;;;;;5059991;28;20110;-76
2023/07/11 06:48:26;;;;;;;7.63;6.30;;;;;;;;;;5059583;28;20081;-77
2023/07/11 06:51:09;;;;;;;7.20;6.60;;;;;;;;;;5060890;28;20058;-75
2023/07/11 06:53:35;;;;;;;7.57;6.68;;;;;;;;;;5062366;28;20611;-75
2023/07/11 06:56:00;;;;;;;7.28;6.47;;;;;;;;;;5059236;28;20127;-75
2023/07/11 06:58:26;;;;;;;7.07;6.30;;;;;;;;;;5054929;28;20040;-75
2023/07/11 07:00:53;;;;;;;7.85;7.05;;;;;;;;;;5057956;28;20427;-75
2023/07/11 07:03:18;;;;;;;6.72;6.13;;;;;;;;;;5056662;28;20115;-78
2023/07/11 07:05:48;;;;;;;8.52;6.63;;;;;;;;;;5059471;28;20518;-77
2023/07/11 07:08:13;;;;;;;7.45;6.72;;;;;;;;;;5058082;28;20055;-77
2023/07/11 07:10:39;;;;;;;7.45;6.13;;;;;;;;;;5058851;28;20028;-76
2023/07/11 07:13:04;;;;;;;7.13;6.07;;;;;;;;;;5057208;28;20043;-75
2023/07/11 07:15:29;;;;;;;6.78;6.18;;;;;;;;;;5058640;28;20135;-76
2023/07/11 07:17:55;;;;;;;6.90;6.07;;;;;;;;;;5058131;28;20450;-75
2023/07/11 07:20:20;;;;;;;7.78;6.25;;;;;;;;;;5056904;28;20400;-76
2023/07/11 07:22:45;;;;;;;6.82;5.93;;;;;;;;;;5060357;28;20024;-75
2023/07/11 07:25:11;;;;;;;8.75;6.25;;;;;;;;;;5059482;28;20029;-73
2023/07/11 07:27:36;;;;;;;9.60;6.43;;;;;;;;;;5058993;28;20456;-75
2023/07/11 07:30:01;;;;;;;6.60;6.00;;;;;;;;;;5057236;28;20387;-75
2023/07/11 07:32:27;;;;;;;6.95;5.85;;;;;;;;;;5059989;28;20032;-74
2023/07/11 07:34:52;;;;;;;6.22;5.68;;;;;;;;;;5051480;28;20146;-75
2023/07/11 07:37:17;;;;;;;9.02;7.35;;;;;;;;;;5048336;28;20047;-74
2023/07/11 07:39:43;;;;;;;8.52;6.80;;;;;;;;;;5049821;28;20411;-75
2023/07/11 07:42:08;;;;;;;7.70;6.22;;;;;;;;;;5048969;28;20456;-74
2023/07/11 07:44:34;;;;;;;6.82;6.13;;;;;;;;;;5044873;28;20035;-77
2023/07/11 07:46:59;;;;;;;6.97;6.03;;;;;;;;;;5049956;28;20028;-75
2023/07/11 07:49:24;;;;;;;6.00;5.43;;;;;;;;;;5049531;28;20039;-74
2023/07/11 07:51:50;;;;;;;6.13;5.60;;;;;;;;;;5048824;28;20028;-75
2023/07/11 07:54:15;;;;;;;5.93;5.43;;;;;;;;;;5049809;28;20028;-74
2023/07/11 07:56:40;;;;;;;6.47;5.60;;;;;;;;;;5047596;28;20440;-76
2023/07/11 07:59:06;;;;;;;6.45;4.90;;;;;;;;;;5049432;28;20043;-73
2023/07/11 08:01:31;;;;;;;7.25;5.22;;;;;;;;;;5047263;28;20367;-75
2023/07/11 08:03:57;;;;;;;6.90;5.60;;;;;;;;;;5047808;28;20024;-75
2023/07/11 08:06:22;;;;;;;8.63;5.15;;;;;;;;;;5051193;28;20025;-73
2023/07/11 08:08:48;;;;;;;5.43;4.93;;;;;;;;;;5048220;28;20344;-75
2023/07/11 08:11:14;;;;;;;5.97;5.35;;;;;;;;;;5056374;28;20136;-74
2023/07/11 08:13:40;;;;;;;6.18;5.57;;;;;;;;;;5047228;28;20508;-74
2023/07/11 08:16:05;;;;;;;6.22;4.90;;;;;;;;;;5059736;28;20028;-74
2023/07/11 08:18:30;;;;;;;11.57;5.22;;;;;;;;;;5058034;28;20024;-75
2023/07/11 08:20:57;;;;;;;6.15;4.85;;;;;;;;;;5060057;28;20024;-75
2023/07/11 08:23:23;;;;;;;5.43;4.70;;;;;;;;;;5059211;28;20033;-75
2023/07/11 08:25:55;;;;;;;6.75;5.10;;;;;;;;;;5060183;28;20359;-75
2023/07/11 08:28:20;;;;;;;5.88;5.13;;;;;;;;;;5057104;28;20028;-75
2023/07/11 08:30:45;;;;;;;6.07;4.97;;;;;;;;;;5058760;28;20348;-74
2023/07/11 08:33:11;;;;;;;5.40;5.00;;;;;;;;;;5049770;28;20024;-74
2023/07/11 08:35:36;;;;;;;5.63;5.10;;;;;;;;;;5045749;28;20245;-75
2023/07/11 08:38:02;;;;;;;6.25;4.72;;;;;;;;;;5047861;28;20028;-75
2023/07/11 08:40:30;;;;;;;5.20;4.78;;;;;;;;;;5047563;28;20028;-76
2023/07/11 08:42:55;;;;;;;6.75;4.97;;;;;;;;;;5051618;28;20410;-75
2023/07/11 08:45:21;;;;;;;7.78;5.05;;;;;;;;;;5047481;28;20020;-74
2023/07/11 08:47:55;;;;;;;5.78;5.28;;;;;;;;;;5048249;28;20027;-75
2023/07/11 08:50:23;;;;;;;6.75;4.65;;;;;;;;;;5048491;28;20112;-76
2023/07/11 08:52:51;;;;;;;6.45;4.88;;;;;;;;;;5051078;28;20021;-75
2023/07/11 08:55:42;;;;;;;6.82;5.10;;;;;;;;;;5046834;28;20071;-76
2023/07/11 08:58:16;;;;;;;5.75;5.10;;;;;;;;;;5044370;28;20043;-76
2023/07/11 09:00:44;;;;;;;6.00;4.90;;;;;;;;;;5043192;28;21239;-77
2023/07/11 09:03:16;;;;;;;8.70;4.68;;;;;;;;;;5046032;28;20063;-77
2023/07/11 09:06:00;;;;;;;6.05;4.97;;;;;;;;;;5047010;28;20077;-76
2023/07/11 09:08:25;;;;;;;5.35;4.80;;;;;;;;;;5046008;28;20054;-78
2023/07/11 09:10:53;;;;;;;5.47;4.63;;;;;;;;;;5045765;28;20044;-75
2023/07/11 09:13:48;;;;;;;8.18;5.10;;;;;;;;;;5049368;28;20032;-78
2023/07/11 09:16:22;;;;;;;8.55;4.60;;;;;;;;;;5028200;28;20474;-76
2023/07/11 09:18:52;;;;;;;7.30;4.78;;;;;;;;;;5036812;28;20056;-76
2023/07/11 09:21:26;;;;;;;5.15;4.63;;;;;;;;;;5031299;28;20128;-77
2023/07/11 09:24:00;;;;;;;4.78;4.38;;;;;;;;;;5026290;28;20101;-78
2023/07/11 09:26:27;;;;;;;5.05;4.57;;;;;;;;;;5027378;28;20187;-74
2023/07/11 09:29:07;;;;;;;5.47;4.97;;;;;;;;;;5026938;28;20361;-75
2023/07/11 09:31:39;;;;;;;5.00;4.60;;;;;;;;;;5031157;28;20067;-79
2023/07/11 09:34:19;;;;;;;6.40;4.63;;;;;;;;;;5031923;28;20091;-77
2023/07/11 09:36:45;;;;;;;5.25;4.53;;;;;;;;;;5029318;28;20025;-76
2023/07/11 09:39:13;;;;;;;5.20;4.65;;;;;;;;;;5027989;28;20051;-77
2023/07/11 09:41:47;;;;;;;6.32;4.88;;;;;;;;;;5028327;28;20123;-76
2023/07/11 09:44:12;;;;;;;4.90;4.30;;;;;;;;;;5029337;28;20028;-79
2023/07/11 09:46:38;;;;;;;5.13;4.65;;;;;;;;;;5028111;28;20041;-78
2023/07/11 09:49:04;;;;;;;6.72;4.95;;;;;;;;;;5028052;28;20675;-75
2023/07/11 09:51:36;;;;;;;5.93;4.68;;;;;;;;;;5033630;28;21011;-76
2023/07/11 09:54:02;;;;;;;4.65;4.25;;;;;;;;;;5049031;28;20039;-75
2023/07/11 09:56:28;;;;;;;6.43;4.60;;;;;;;;;;5066878;28;20052;-76
2023/07/11 09:58:58;;;;;;;4.82;4.43;;;;;;;;;;5048630;28;20071;-73
2023/07/11 10:01:30;;;;;;;9.30;4.47;;;;;;;;;;5047401;28;20119;-75
2023/07/11 10:03:56;;;;;;;5.10;4.63;;;;;;;;;;5052675;28;20083;-74
2023/07/11 10:06:34;;;;;;;6.50;4.70;;;;;;;;;;5054645;28;20033;-74
2023/07/11 10:09:13;;;;;;;5.18;4.47;;;;;;;;;;5047945;28;20625;-75
2023/07/11 10:11:39;;;;;;;5.20;4.70;;;;;;;;;;5050292;28;20043;-74
2023/07/11 10:14:04;;;;;;;4.43;4.03;;;;;;;;;;5049076;28;20059;-75
2023/07/11 10:16:33;;;;;;;5.00;4.25;;;;;;;;;;5050135;28;20115;-75
2023/07/11 10:18:58;;;;;;;;;;;;;;;;;;5048508;28;20044;-72
2023/07/11 10:21:25;;;;;;;6.30;4.70;;;;;;;;;;5056141;28;19909;-77
2023/07/11 10:23:51;;;;;;;5.53;4.35;;;;;;;;;;5061930;28;20043;-74
2023/07/11 10:26:17;;;;;;;5.60;4.40;;;;;;;;;;5057037;28;20043;-71
2023/07/11 10:28:43;;;;;;;5.25;4.75;;;;;;;;;;5060490;28;20348;-71
2023/07/11 10:31:27;;;;;;;5.43;4.47;;;;;;;;;;5061831;28;20060;-71
2023/07/11 10:33:57;;;;;;;9.07;4.53;;;;;;;;;;5062108;28;20290;-75
2023/07/11 10:36:33;;;;;;;5.57;4.88;;;;;;;;;;5051908;28;20025;-76
2023/07/11 10:39:04;;;;;;;4.50;4.07;;;;;;;;;;5048171;28;20024;-78
2023/07/11 10:41:35;;;;;;;7.35;4.78;;;;;;;;;;5063925;28;20443;-78
2023/07/11 10:44:01;;;;;;;5.07;4.15;;;;;;;;;;5047633;28;20414;-77
2023/07/11 10:46:47;;;;;;;5.43;4.93;;;;;;;;;;5051573;28;20028;-74
2023/07/11 10:49:18;;;;;;;8.70;4.97;;;;;;;;;;5050027;28;20067;-74
2023/07/11 10:51:52;;;;;;;8.63;4.90;;;;;;;;;;5051063;28;20039;-76
2023/07/11 10:54:38;;;;;;;10.52;4.80;;;;;;;;;;5048350;28;20111;-74
2023/07/11 10:57:08;;;;;;;6.85;5.00;;;;;;;;;;5048719;28;20059;-71
2023/07/11 10:59:33;;;;;;;7.72;4.43;;;;;;;;;;5048076;28;20024;-73
2023/07/11 11:02:19;;;;;;;6.55;5.15;;;;;;;;;;5047836;28;20356;-72
2023/07/11 11:04:52;;;;;;;8.63;4.75;;;;;;;;;;5049740;28;20052;-74
2023/07/11 11:07:34;;;;;;;5.15;4.65;;;;;;;;;;5048018;28;20057;-73
2023/07/11 11:10:23;;;;;;;8.70;4.82;;;;;;;;;;5047957;28;20363;-73
2023/07/11 11:13:05;;;;;;;7.85;4.68;;;;;;;;;;5049659;28;20127;-76
2023/07/11 11:15:35;;;;;;;5.28;4.78;;;;;;;;;;5050286;28;20032;-76
2023/07/11 11:18:09;;;;;;;6.85;4.95;;;;;;;;;;5048437;28;20028;-75
2023/07/11 11:20:58;;;;;;;5.55;4.88;;;;;;;;;;5048533;28;20029;-76
2023/07/11 11:23:42;;;;;;;8.93;5.00;;;;;;;;;;5050817;28;20090;-77
2023/07/11 11:26:31;;;;;;;7.25;5.00;;;;;;;;;;5048669;28;20028;-76
2023/07/11 11:28:56;;;;;;;;;;;;;;;;;;5038591;28;20123;-76
2023/07/11 11:31:26;;;;;;;5.53;4.33;;;;;;;;;;5048716;28;20003;-76
2023/07/11 11:34:00;;;;;;;8.05;4.60;;;;;;;;;;5064157;28;20028;-79
2023/07/11 11:36:30;;;;;;;5.32;4.35;;;;;;;;;;5049551;28;20067;-75
2023/07/11 11:39:01;;;;;;;7.43;4.95;;;;;;;;;;5059317;28;20028;-72
2023/07/11 11:41:47;;;;;;;4.97;4.47;;;;;;;;;;5056838;28;20024;-72
2023/07/11 11:44:20;;;;;;;7.93;4.68;;;;;;;;;;5051354;28;20127;-72
2023/07/11 11:46:46;;;;;;;5.22;4.72;;;;;;;;;;5054668;28;20020;-75
2023/07/11 11:49:13;;;;;;;6.13;4.53;;;;;;;;;;5047669;28;20037;-75
2023/07/11 11:51:39;;;;;;;7.00;4.90;;;;;;;;;;5047286;28;20020;-72
2023/07/11 11:54:13;;;;;;;8.32;4.40;;;;;;;;;;5048513;28;20031;-72
2023/07/11 11:56:43;;;;;;;5.00;4.32;;;;;;;;;;5049329;28;20028;-73
2023/07/11 11:59:22;;;;;;;5.60;4.97;;;;;;;;;;5050961;28;20028;-76
2023/07/11 12:01:53;;;;;;;5.70;4.47;;;;;;;;;;5049287;28;20028;-76
2023/07/11 12:04:41;;;;;;;6.75;4.10;;;;;;;;;;5048723;28;20037;-74
2023/07/11 12:07:13;;;;;;;7.80;4.88;;;;;;;;;;5049134;28;20625;-75
2023/07/11 12:09:53;;;;;;;6.57;4.43;;;;;;;;;;5072127;28;20469;-75
2023/07/11 12:12:34;;;;;;;9.15;5.05;;;;;;;;;;5057262;28;20029;-76
2023/07/11 12:15:01;;;;;;;7.75;4.68;;;;;;;;;;5057550;28;20115;-74
2023/07/11 12:17:29;;;;;;;7.15;4.72;;;;;;;;;;5059596;28;20029;-75
2023/07/11 12:20:01;;;;;;;6.53;4.30;;;;;;;;;;5054201;28;20074;-75
2023/07/11 12:22:29;;;;;;;4.80;4.40;;;;;;;;;;5058480;28;20028;-74
2023/07/11 12:24:59;;;;;;;5.15;4.40;;;;;;;;;;5056477;28;20025;-76
2023/07/11 12:27:24;;;;;;;4.40;4.00;;;;;;;;;;5057253;28;20017;-74
2023/07/11 12:29:50;;;;;;;5.57;4.47;;;;;;;;;;5046072;28;22836;-74
2023/07/11 12:32:29;;;;;;;7.57;4.20;;;;;;;;;;5047800;28;20159;-72
2023/07/11 12:34:55;;;;;;;7.28;4.95;;;;;;;;;;5050974;28;20040;-71
2023/07/11 12:37:24;;;;;;;4.72;4.28;;;;;;;;;;5056746;28;20070;-71
2023/07/11 12:39:59;;;;;;;5.35;4.60;;;;;;;;;;5060110;28;20055;-73
2023/07/11 12:42:24;;;;;;;6.85;5.00;;;;;;;;;;5057882;28;20153;-73
2023/07/11 12:44:49;;;;;;;4.72;4.32;;;;;;;;;;5055612;28;20028;-74
2023/07/11 12:47:16;;;;;;;6.80;4.65;;;;;;;;;;5053255;28;20032;-74
2023/07/11 12:49:43;;;;;;;4.78;4.30;;;;;;;;;;5045800;28;20028;-72
2023/07/11 12:52:10;;;;;;;4.35;4.00;;;;;;;;;;5047119;28;20345;-72
2023/07/11 12:54:36;;;;;;;5.72;4.60;;;;;;;;;;5055254;28;20466;-72
2023/07/11 12:57:01;;;;;;;6.00;4.65;;;;;;;;;;5055479;28;20060;-76
2023/07/11 12:59:27;;;;;;;4.75;4.35;;;;;;;;;;5057910;28;20035;-77
2023/07/11 13:01:53;;;;;;;6.82;4.82;;;;;;;;;;5060359;28;20444;-76
2023/07/11 13:04:31;;;;;;;14.50;5.53;;;;;;;;;;5056363;28;20017;-76
2023/07/11 13:06:57;;;;;;;13.20;5.13;;;;;;;;;;5055418;28;20066;-73
2023/07/11 13:09:23;;;;;;;6.40;4.43;;;;;;;;;;5055819;28;20519;-73
2023/07/11 13:11:49;;;;;;;6.30;4.72;;;;;;;;;;5057408;28;20035;-72
2023/07/11 13:14:14;;;;;;;5.88;4.88;;;;;;;;;;5048688;28;20025;-73
2023/07/11 13:16:40;;;;;;;6.28;4.43;;;;;;;;;;5046516;28;20752;-75
2023/07/11 13:19:12;;;;;;;8.85;5.47;;;;;;;;;;5045115;28;20025;-74
2023/07/11 13:21:37;;;;;;;7.05;5.13;;;;;;;;;;5047031;28;20031;-74
2023/07/11 13:24:03;;;;;;;7.15;4.75;;;;;;;;;;5048538;28;20028;-73
2023/07/11 13:26:31;;;;;;;8.00;4.97;;;;;;;;;;5059434;28;20030;-75
2023/07/11 13:29:06;;;;;;;10.15;5.25;;;;;;;;;;5056953;28;20107;-77
2023/07/11 13:31:33;;;;;;;6.03;4.70;;;;;;;;;;5055594;28;20040;-75
2023/07/11 13:34:01;;;;;;;9.48;4.95;;;;;;;;;;5046158;28;20035;-74
2023/07/11 13:36:30;;;;;;;5.63;4.80;;;;;;;;;;5044546;28;20027;-75
2023/07/11 13:38:59;;;;;;;7.93;4.53;;;;;;;;;;5044650;28;20025;-75
2023/07/11 13:41:41;;;;;;;5.65;4.82;;;;;;;;;;5046388;28;20103;-75
2023/07/11 13:44:20;;;;;;;7.38;4.68;;;;;;;;;;5046006;28;20029;-75
2023/07/11 13:46:46;;;;;;;5.15;4.70;;;;;;;;;;5044811;28;20032;-77
2023/07/11 13:49:19;;;;;;;8.02;4.72;;;;;;;;;;5073881;28;20312;-75
2023/07/11 13:51:45;;;;;;;10.70;5.80;;;;;;;;;;5058769;28;20464;-75
2023/07/11 13:54:22;;;;;;;8.90;5.10;;;;;;;;;;5046029;28;20064;-77
2023/07/11 13:56:48;;;;;;;6.47;5.15;;;;;;;;;;5057380;28;20097;-74
2023/07/11 13:59:14;;;;;;;5.22;4.72;;;;;;;;;;5046432;28;20036;-76
2023/07/11 14:01:40;;;;;;;6.15;5.43;;;;;;;;;;5058290;28;20025;-75
2023/07/11 14:04:28;;;;;;;6.13;5.25;;;;;;;;;;5056240;28;20032;-76
2023/07/11 14:06:54;;;;;;;10.70;5.43;;;;;;;;;;5045288;28;20048;-73
2023/07/11 14:09:19;;;;;;;5.28;4.78;;;;;;;;;;5049346;28;20032;-73
2023/07/11 14:11:45;;;;;;;7.03;5.50;;;;;;;;;;5053334;28;20186;-73
2023/07/11 14:14:11;;;;;;;5.80;4.75;;;;;;;;;;5061180;28;20121;-75
2023/07/11 14:16:37;;;;;;;8.52;5.43;;;;;;;;;;5063294;28;20105;-73
2023/07/11 14:19:03;;;;;;;7.90;5.32;;;;;;;;;;5060413;28;20028;-74
2023/07/11 14:21:28;;;;;;;12.23;5.63;;;;;;;;;;5050257;28;20037;-74
2023/07/11 14:23:54;;;;;;;6.57;5.35;;;;;;;;;;5057365;28;20405;-73
2023/07/11 14:26:19;;;;;;;6.10;5.50;;;;;;;;;;5071392;28;20032;-75
2023/07/11 14:28:45;;;;;;;6.38;5.78;;;;;;;;;;5049306;28;20047;-73
2023/07/11 14:31:19;;;;;;;5.38;4.88;;;;;;;;;;5052294;28;20024;-75
2023/07/11 14:33:44;;;;;;;5.43;5.00;;;;;;;;;;5060633;28;20059;-75
2023/07/11 14:36:11;;;;;;;12.45;5.50;;;;;;;;;;5060920;28;20421;-74
2023/07/11 14:38:36;;;;;;;8.57;5.65;;;;;;;;;;5053419;28;20047;-73
2023/07/11 14:41:02;;;;;;;11.30;5.75;;;;;;;;;;5065436;28;20028;-76